createdAt,value
2024-04-23T00:00:25.192Z,100595.05
2024-04-23T00:01:27.540Z,100602.13
2024-04-23T00:02:29.918Z,100599.41
2024-04-23T00:03:32.356Z,100595.97
2024-04-23T00:04:34.607Z,100597.59
2024-04-23T00:05:36.953Z,100590.62
2024-04-23T00:06:39.252Z,100591.38
2024-04-23T00:07:41.565Z,100594.78
2024-04-23T00:08:44.127Z,100591.28
2024-04-23T00:09:46.497Z,100589.48
2024-04-23T00:10:48.934Z,100586.84
2024-04-23T00:11:51.769Z,100591.97
2024-04-23T00:12:54.155Z,100590.18
2024-04-23T00:13:56.983Z,100589.32
2024-04-23T00:14:59.458Z,100588.39
2024-04-23T00:16:01.731Z,100588.39
2024-04-23T00:17:05.025Z,100590.88
2024-04-23T00:18:07.698Z,100596.06
2024-04-23T00:19:09.915Z,100592.50
2024-04-23T00:20:12.494Z,100594.18
2024-04-23T00:21:14.694Z,100589.75
2024-04-23T00:22:16.989Z,100593.16
2024-04-23T00:23:19.208Z,100591.20
2024-04-23T00:24:21.506Z,100587.69
2024-04-23T00:25:25.448Z,100587.69
2024-04-23T00:26:28.073Z,100592.92
2024-04-23T00:27:30.407Z,100591.12
2024-04-23T00:28:32.692Z,100590.17
2024-04-23T00:29:34.932Z,100594.60
2024-04-23T00:30:37.316Z,100591.72
2024-04-23T00:31:39.889Z,100583.67
2024-04-23T00:32:42.054Z,100595.89
2024-04-23T00:33:44.571Z,100594.03
2024-04-23T00:34:47.091Z,100591.17
2024-04-23T00:35:49.279Z,100591.11
2024-04-23T00:36:54.159Z,100591.01
2024-04-23T00:37:56.589Z,100591.87
2024-04-23T00:38:58.984Z,100587.33
2024-04-23T00:40:01.433Z,100586.50
2024-04-23T00:41:03.828Z,100587.50
2024-04-23T00:42:06.216Z,100578.73
2024-04-23T00:43:08.647Z,100588.46
2024-04-23T00:44:10.784Z,100584.95
2024-04-23T00:45:14.705Z,100581.38
2024-04-23T00:46:17.568Z,100582.30
2024-04-23T00:47:21.072Z,100584.02
2024-04-23T00:48:23.701Z,100583.85
2024-04-23T00:49:26.260Z,100589.15
2024-04-23T00:50:28.828Z,100592.63
2024-04-23T00:51:31.352Z,100590.77
2024-04-23T00:52:33.930Z,100593.31
2024-04-23T00:53:36.162Z,100590.83
2024-04-23T00:54:38.520Z,100584.78
2024-04-23T00:55:41.189Z,100584.95
2024-04-23T00:56:44.042Z,100595.65
2024-04-23T00:57:46.172Z,100589.56
2024-04-23T00:58:48.867Z,100588.80
2024-04-23T00:59:51.270Z,100583.50
2024-04-23T01:00:54.235Z,100593.23
2024-04-23T01:01:56.978Z,100587.08
2024-04-23T01:02:59.944Z,100586.09
2024-04-23T01:04:03.506Z,100582.48
2024-04-23T01:05:05.980Z,100584.95
2024-04-23T01:06:10.961Z,100590.94
2024-04-23T01:07:13.262Z,100594.34
2024-04-23T01:08:15.629Z,100587.16
2024-04-23T01:09:18.720Z,100587.09
2024-04-23T01:10:21.254Z,100592.97
2024-04-23T01:11:23.544Z,100595.52
2024-04-23T01:12:25.881Z,100590.31
2024-04-23T01:13:28.286Z,100591.25
2024-04-23T01:14:31.442Z,100587.67
2024-04-23T01:15:34.836Z,100581.52
2024-04-23T01:16:42.584Z,100586.81
2024-04-23T01:17:46.224Z,100593.90
2024-04-23T01:18:48.836Z,100595.69
2024-04-23T01:19:54.803Z,100588.77
2024-04-23T01:20:59.246Z,100592.38
2024-04-23T01:22:10.152Z,100593.31
2024-04-23T01:23:18.304Z,100598.61
2024-04-23T01:24:23.664Z,100597.58
2024-04-23T01:25:26.942Z,100597.51
2024-04-23T01:26:29.931Z,100594.76
2024-04-23T01:27:33.164Z,100593.83
2024-04-23T01:28:37.186Z,100592.04
2024-04-23T01:29:40.206Z,100599.02
2024-04-23T01:30:43.913Z,100593.66
2024-04-23T01:31:46.830Z,100590.05
2024-04-23T01:32:49.878Z,100595.34
2024-04-23T01:33:54.219Z,100599.78
2024-04-23T01:34:57.128Z,100599.78
2024-04-23T01:35:59.599Z,100599.70
2024-04-23T01:37:03.539Z,100602.25
2024-04-23T01:38:06.159Z,100595.17
2024-04-23T01:39:08.652Z,100590.63
2024-04-23T01:40:11.764Z,100594.14
2024-04-23T01:41:14.248Z,100599.36
2024-04-23T01:42:17.103Z,100591.31
2024-04-23T01:43:19.583Z,100599.19
2024-04-23T01:44:21.875Z,100598.16
2024-04-23T01:45:24.543Z,100603.25
2024-04-23T01:46:27.414Z,100602.31
2024-04-23T01:47:30.021Z,100599.59
2024-04-23T01:48:32.752Z,100601.21
2024-04-23T01:49:35.417Z,100602.04
2024-04-23T01:50:37.800Z,100601.86
2024-04-23T01:51:40.400Z,100603.69
2024-04-23T01:52:43.509Z,100602.65
2024-04-23T01:53:45.692Z,100602.65
2024-04-23T01:54:48.520Z,100605.20
2024-04-23T01:55:50.694Z,100601.61
2024-04-23T01:56:53.456Z,100602.65
2024-04-23T01:57:55.985Z,100606.34
2024-04-23T01:58:58.299Z,100604.52
2024-04-23T02:00:04.191Z,100608.12
2024-04-23T02:01:07.350Z,100606.41
2024-04-23T02:02:09.824Z,100609.16
2024-04-23T02:03:13.734Z,100603.08
2024-04-23T02:04:18.686Z,100610.27
2024-04-23T02:05:21.663Z,100608.55
2024-04-23T02:06:24.686Z,100613.19
2024-04-23T02:07:27.359Z,100615.08
2024-04-23T02:08:29.721Z,100614.30
2024-04-23T02:09:33.309Z,100609.00
2024-04-23T02:10:38.560Z,100616.02
2024-04-23T02:11:41.545Z,100612.44
2024-04-23T02:12:44.020Z,100623.03
2024-04-23T02:13:46.459Z,100616.02
2024-04-23T02:14:48.656Z,100621.38
2024-04-23T02:15:50.825Z,100620.38
2024-04-23T02:16:53.398Z,100624.82
2024-04-23T02:17:56.134Z,100632.66
2024-04-23T02:18:58.328Z,100633.42
2024-04-23T02:20:02.300Z,100638.66
2024-04-23T02:21:05.282Z,100636.00
2024-04-23T02:22:07.589Z,100641.38
2024-04-23T02:23:09.846Z,100641.47
2024-04-23T02:24:12.225Z,100637.28
2024-04-23T02:25:14.501Z,100646.53
2024-04-23T02:26:16.754Z,100650.20
2024-04-23T02:27:19.269Z,100644.22
2024-04-23T02:28:21.561Z,100649.52
2024-04-23T02:29:23.762Z,100646.87
2024-04-23T02:30:25.803Z,100645.94
2024-04-23T02:31:28.310Z,100644.22
2024-04-23T02:32:30.615Z,100646.87
2024-04-23T02:33:33.010Z,100651.41
2024-04-23T02:34:35.401Z,100651.41
2024-04-23T02:35:41.490Z,100656.70
2024-04-23T02:36:43.745Z,100658.42
2024-04-23T02:37:46.019Z,100653.95
2024-04-23T02:38:48.393Z,100658.42
2024-04-23T02:39:50.639Z,100658.32
2024-04-23T02:40:53.095Z,100655.84
2024-04-23T02:41:55.459Z,100657.73
2024-04-23T02:42:57.756Z,100658.66
2024-04-23T02:44:00.138Z,100664.05
2024-04-23T02:45:02.639Z,100654.33
2024-04-23T02:46:06.026Z,100659.62
2024-04-23T02:47:08.301Z,100668.39
2024-04-23T02:48:10.748Z,100666.53
2024-04-23T02:49:13.239Z,100664.81
2024-04-23T02:50:15.535Z,100662.09
2024-04-23T02:51:17.622Z,100663.03
2024-04-23T02:52:19.881Z,100661.24
2024-04-23T02:53:21.946Z,100665.51
2024-04-23T02:54:24.312Z,100661.07
2024-04-23T02:55:27.848Z,100661.90
2024-04-23T02:56:30.061Z,100662.86
2024-04-23T02:57:32.405Z,100659.45
2024-04-23T02:58:34.782Z,100662.92
2024-04-23T02:59:37.061Z,100662.86
2024-04-23T03:00:39.326Z,100658.32
2024-04-23T03:01:41.579Z,100657.30
2024-04-23T03:02:43.864Z,100656.27
2024-04-23T03:03:46.369Z,100665.07
2024-04-23T03:04:48.780Z,100665.93
2024-04-23T03:05:51.338Z,100666.69
2024-04-23T03:06:53.690Z,100661.22
2024-04-23T03:07:56.000Z,100666.52
2024-04-23T03:08:58.277Z,100673.37
2024-04-23T03:10:00.665Z,100671.48
2024-04-23T03:11:03.270Z,100667.86
2024-04-23T03:12:05.929Z,100666.08
2024-04-23T03:13:08.518Z,100672.13
2024-04-23T03:14:10.699Z,100673.78
2024-04-23T03:15:12.987Z,100672.92
2024-04-23T03:16:15.921Z,100675.58
2024-04-23T03:17:18.137Z,100675.58
2024-04-23T03:18:20.373Z,100677.53
2024-04-23T03:19:22.749Z,100675.81
2024-04-23T03:20:25.218Z,100673.27
2024-04-23T03:21:27.418Z,100676.95
2024-04-23T03:22:29.691Z,100679.77
2024-04-23T03:23:31.905Z,100678.05
2024-04-23T03:24:34.242Z,100679.00
2024-04-23T03:25:38.729Z,100680.03
2024-04-23T03:26:40.817Z,100684.37
2024-04-23T03:27:42.994Z,100682.69
2024-04-23T03:28:45.370Z,100679.24
2024-04-23T03:29:47.660Z,100683.61
2024-04-23T03:30:50.364Z,100678.31
2024-04-23T03:32:03.683Z,100687.98
2024-04-23T03:33:06.397Z,100684.47
2024-04-23T03:34:08.701Z,100686.27
2024-04-23T03:35:11.384Z,100686.27
2024-04-23T03:36:17.661Z,100683.61
2024-04-23T03:37:18.616Z,100684.64
2024-04-23T03:38:20.703Z,100688.91
2024-04-23T03:39:22.752Z,100686.27
2024-04-23T03:40:25.415Z,100682.52
2024-04-23T03:41:28.304Z,100693.18
2024-04-23T03:42:30.727Z,100685.40
2024-04-23T03:43:32.961Z,100687.45
2024-04-23T03:44:37.609Z,100690.38
2024-04-23T03:45:39.320Z,100687.89
2024-04-23T03:46:41.773Z,100691.40
2024-04-23T03:47:44.161Z,100692.33
2024-04-23T03:48:46.418Z,100699.41
2024-04-23T03:49:48.744Z,100698.48
2024-04-23T03:50:51.489Z,100693.09
2024-04-23T03:51:54.062Z,100705.30
2024-04-23T03:52:56.393Z,100701.03
2024-04-23T03:53:58.617Z,100699.34
2024-04-23T03:55:00.841Z,100701.30
2024-04-23T03:56:03.492Z,100700.44
2024-04-23T03:57:05.644Z,100696.86
2024-04-23T03:58:08.033Z,100699.41
2024-04-23T03:59:10.158Z,100698.38
2024-04-23T04:00:13.299Z,100706.33
2024-04-23T04:01:15.480Z,100701.89
2024-04-23T04:02:17.961Z,100708.22
2024-04-23T04:03:20.332Z,100708.38
2024-04-23T04:04:23.126Z,100705.90
2024-04-23T04:05:26.153Z,100711.13
2024-04-23T04:06:28.456Z,100713.84
2024-04-23T04:07:30.822Z,100718.37
2024-04-23T04:08:36.394Z,100714.17
2024-04-23T04:09:38.627Z,100712.38
2024-04-23T04:10:41.181Z,100711.63
2024-04-23T04:11:43.752Z,100715.73
2024-04-23T04:12:46.258Z,100720.16
2024-04-23T04:13:48.568Z,100715.20
2024-04-23T04:14:50.844Z,100714.69
2024-04-23T04:15:53.082Z,100719.45
2024-04-23T04:17:09.200Z,100718.75
2024-04-23T04:18:11.690Z,100722.52
2024-04-23T04:19:13.968Z,100720.03
2024-04-23T04:20:16.300Z,100723.00
2024-04-23T04:21:18.866Z,100714.36
2024-04-23T04:22:21.124Z,100721.30
2024-04-23T04:23:23.668Z,100715.86
2024-04-23T04:24:25.968Z,100717.48
2024-04-23T04:25:28.647Z,100714.83
2024-04-23T04:26:31.382Z,100719.94
2024-04-23T04:27:33.704Z,100721.66
2024-04-23T04:28:36.006Z,100719.01
2024-04-23T04:29:38.212Z,100723.28
2024-04-23T04:30:40.925Z,100720.47
2024-04-23T04:31:43.331Z,100723.12
2024-04-23T04:32:45.971Z,100722.26
2024-04-23T04:33:48.432Z,100726.69
2024-04-23T04:34:50.753Z,100731.31
2024-04-23T04:35:53.466Z,100739.32
2024-04-23T04:36:56.323Z,100727.88
2024-04-23T04:37:58.525Z,100731.64
2024-04-23T04:39:01.192Z,100730.94
2024-04-23T04:40:04.020Z,100731.92
2024-04-23T04:41:06.556Z,100729.44
2024-04-23T04:42:08.861Z,100730.55
2024-04-23T04:43:11.316Z,100724.55
2024-04-23T04:44:13.577Z,100728.92
2024-04-23T04:45:15.876Z,100730.61
2024-04-23T04:46:18.233Z,100726.02
2024-04-23T04:47:20.523Z,100734.66
2024-04-23T04:48:22.904Z,100734.54
2024-04-23T04:49:25.594Z,100732.72
2024-04-23T04:50:28.610Z,100735.30
2024-04-23T04:51:30.870Z,100731.48
2024-04-23T04:52:33.127Z,100734.89
2024-04-23T04:53:35.595Z,100730.45
2024-04-23T04:54:37.787Z,100734.89
2024-04-23T04:55:40.200Z,100732.18
2024-04-23T04:56:42.624Z,100736.45
2024-04-23T04:57:45.002Z,100734.57
2024-04-23T04:58:47.395Z,100731.92
2024-04-23T04:59:50.078Z,100736.30
2024-04-23T05:00:52.481Z,100741.65
2024-04-23T05:01:54.788Z,100740.78
2024-04-23T05:02:57.085Z,100737.28
2024-04-23T05:03:59.304Z,100745.06
2024-04-23T05:05:01.800Z,100744.03
2024-04-23T05:06:04.800Z,100745.66
2024-04-23T05:07:07.015Z,100745.34
2024-04-23T05:08:09.736Z,100745.18
2024-04-23T05:09:12.624Z,100752.09
2024-04-23T05:10:15.518Z,100750.41
2024-04-23T05:11:17.941Z,100749.55
2024-04-23T05:12:20.215Z,100756.53
2024-04-23T05:13:22.558Z,100757.66
2024-04-23T05:14:24.681Z,100763.20
2024-04-23T05:15:27.157Z,100759.92
2024-04-23T05:16:29.845Z,100760.11
2024-04-23T05:17:32.400Z,100763.69
2024-04-23T05:18:37.036Z,100755.81
2024-04-23T05:19:38.933Z,100751.31
2024-04-23T05:20:41.576Z,100757.11
2024-04-23T05:21:44.173Z,100759.54
2024-04-23T05:22:46.988Z,100751.94
2024-04-23T05:23:49.501Z,100749.89
2024-04-23T05:24:52.047Z,100752.97
2024-04-23T05:25:54.291Z,100760.69
2024-04-23T05:26:56.982Z,100757.94
2024-04-23T05:27:59.256Z,100754.53
2024-04-23T05:29:01.507Z,100756.25
2024-04-23T05:30:04.647Z,100757.02
2024-04-23T05:31:06.943Z,100763.94
2024-04-23T05:32:11.743Z,100758.38
2024-04-23T05:33:14.257Z,100758.47
2024-04-23T05:34:16.606Z,100763.77
2024-04-23T05:35:19.210Z,100761.12
2024-04-23T05:36:21.808Z,100765.56
2024-04-23T05:37:24.134Z,100762.91
2024-04-23T05:38:26.348Z,100761.12
2024-04-23T05:39:28.871Z,100767.02
2024-04-23T05:40:31.594Z,100757.88
2024-04-23T05:41:34.300Z,100763.01
2024-04-23T05:42:36.492Z,100763.67
2024-04-23T05:43:38.872Z,100766.25
2024-04-23T05:44:41.154Z,100765.22
2024-04-23T05:45:43.583Z,100763.09
2024-04-23T05:46:46.107Z,100766.34
2024-04-23T05:48:25.746Z,100766.00
2024-04-23T05:50:27.329Z,100761.36
2024-04-23T05:52:29.938Z,100755.27
2024-04-23T05:54:23.282Z,100754.75
2024-04-23T05:55:46.662Z,100744.55
2024-04-23T05:56:48.568Z,100744.20
2024-04-23T05:57:51.232Z,100743.05
2024-04-23T05:58:53.718Z,100746.50
2024-04-23T05:59:55.942Z,100745.46
2024-04-23T06:01:00.260Z,100739.19
2024-04-23T06:02:02.511Z,100741.66
2024-04-23T06:03:08.004Z,100742.17
2024-04-23T06:04:10.535Z,100751.45
2024-04-23T06:05:13.401Z,100751.95
2024-04-23T06:06:15.978Z,100751.49
2024-04-23T06:07:20.054Z,100750.56
2024-04-23T06:08:22.471Z,100748.69
2024-04-23T06:09:24.825Z,100750.45
2024-04-23T06:10:27.282Z,100751.39
2024-04-23T06:11:30.032Z,100750.74
2024-04-23T06:12:32.724Z,100750.74
2024-04-23T06:13:35.163Z,100751.59
2024-04-23T06:14:37.353Z,100757.66
2024-04-23T06:15:39.725Z,100748.95
2024-04-23T06:16:42.136Z,100757.73
2024-04-23T06:17:47.977Z,100762.97
2024-04-23T06:18:48.908Z,100754.86
2024-04-23T06:19:52.217Z,100755.77
2024-04-23T06:20:55.136Z,100750.30
2024-04-23T06:21:57.401Z,100759.88
2024-04-23T06:22:59.763Z,100759.70
2024-04-23T06:24:02.071Z,100755.89
2024-04-23T06:25:07.430Z,100760.20
2024-04-23T06:26:10.466Z,100755.53
2024-04-23T06:27:12.937Z,100753.44
2024-04-23T06:28:15.252Z,100750.53
2024-04-23T06:29:17.450Z,100748.52
2024-04-23T06:30:20.268Z,100755.36
2024-04-23T06:31:22.513Z,100754.20
2024-04-23T06:32:25.083Z,100763.70
2024-04-23T06:33:27.743Z,100755.36
2024-04-23T06:34:29.914Z,100758.87
2024-04-23T06:35:32.227Z,100755.92
2024-04-23T06:36:35.051Z,100759.89
2024-04-23T06:37:37.696Z,100756.97
2024-04-23T06:38:39.976Z,100761.05
2024-04-23T06:39:43.592Z,100762.73
2024-04-23T06:40:46.706Z,100764.34
2024-04-23T06:41:49.010Z,100765.01
2024-04-23T06:42:51.334Z,100762.27
2024-04-23T06:43:53.641Z,100760.55
2024-04-23T06:44:55.885Z,100764.08
2024-04-23T06:46:00.067Z,100761.22
2024-04-23T06:47:02.471Z,100763.88
2024-04-23T06:48:06.315Z,100763.69
2024-04-23T06:49:09.342Z,100767.84
2024-04-23T06:50:12.135Z,100763.08
2024-04-23T06:51:14.413Z,100760.23
2024-04-23T06:52:16.990Z,100761.64
2024-04-23T06:53:19.423Z,100762.31
2024-04-23T06:54:21.869Z,100757.84
2024-04-23T06:55:25.920Z,100760.20
2024-04-23T06:56:28.454Z,100763.61
2024-04-23T06:57:31.221Z,100772.25
2024-04-23T06:58:33.399Z,100765.21
2024-04-23T06:59:35.589Z,100772.91
2024-04-23T07:00:38.033Z,100762.91
2024-04-23T07:01:40.475Z,100770.61
2024-04-23T07:02:42.809Z,100769.36
2024-04-23T07:03:45.143Z,100768.18
2024-04-23T07:04:47.482Z,100768.84
2024-04-23T07:05:51.435Z,100770.53
2024-04-23T07:06:54.641Z,100770.45
2024-04-23T07:07:56.890Z,100768.64
2024-04-23T07:08:59.232Z,100771.11
2024-04-23T07:10:01.622Z,100771.65
2024-04-23T07:11:04.563Z,100772.39
2024-04-23T07:12:07.391Z,100772.89
2024-04-23T07:13:09.455Z,100769.36
2024-04-23T07:14:12.039Z,100764.27
2024-04-23T07:15:16.129Z,100766.64
2024-04-23T07:16:18.949Z,100772.30
2024-04-23T07:17:21.200Z,100765.59
2024-04-23T07:18:23.792Z,100768.78
2024-04-23T07:19:26.281Z,100765.92
2024-04-23T07:20:29.165Z,100768.29
2024-04-23T07:21:31.711Z,100761.57
2024-04-23T07:22:34.205Z,100764.56
2024-04-23T07:23:36.649Z,100765.41
2024-04-23T07:24:38.927Z,100766.37
2024-04-23T07:25:41.265Z,100764.02
2024-04-23T07:26:43.975Z,100768.28
2024-04-23T07:27:53.082Z,100766.05
2024-04-23T07:28:58.108Z,100759.09
2024-04-23T07:30:01.185Z,100759.39
2024-04-23T07:31:03.638Z,100763.00
2024-04-23T07:32:07.529Z,100759.15
2024-04-23T07:33:20.619Z,100758.97
2024-04-23T07:34:23.417Z,100760.88
2024-04-23T07:35:27.102Z,100755.31
2024-04-23T07:36:30.323Z,100761.76
2024-04-23T07:37:36.463Z,100767.63
2024-04-23T07:38:40.184Z,100764.61
2024-04-23T07:39:44.649Z,100763.53
2024-04-23T07:40:49.154Z,100768.92
2024-04-23T07:41:53.655Z,100758.05
2024-04-23T07:42:56.125Z,100761.84
2024-04-23T07:43:58.617Z,100763.66
2024-04-23T07:45:01.081Z,100762.58
2024-04-23T07:46:04.295Z,100757.73
2024-04-23T07:47:08.176Z,100763.70
2024-04-23T07:48:14.004Z,100767.81
2024-04-23T07:49:18.409Z,100755.31
2024-04-23T07:50:22.063Z,100759.83
2024-04-23T07:51:25.789Z,100757.68
2024-04-23T07:52:31.722Z,100760.12
2024-04-23T07:53:34.096Z,100757.58
2024-04-23T07:54:37.367Z,100752.53
2024-04-23T07:55:40.154Z,100756.20
2024-04-23T07:56:44.699Z,100756.20
2024-04-23T07:57:47.941Z,100754.39
2024-04-23T07:58:50.725Z,100751.09
2024-04-23T07:59:53.325Z,100753.38
2024-04-23T08:00:56.242Z,100752.41
2024-04-23T08:01:58.725Z,100757.39
2024-04-23T08:03:03.162Z,100757.39
2024-04-23T08:04:07.395Z,100757.16
2024-04-23T08:05:11.721Z,100755.27
2024-04-23T08:06:14.538Z,100756.27
2024-04-23T08:07:16.878Z,100760.28
2024-04-23T08:08:21.662Z,100752.27
2024-04-23T08:09:24.274Z,100751.27
2024-04-23T08:10:28.283Z,100747.02
2024-04-23T08:11:30.707Z,100755.17
2024-04-23T08:12:33.506Z,100746.53
2024-04-23T08:13:35.948Z,100757.36
2024-04-23T08:14:38.409Z,100749.81
2024-04-23T08:15:41.186Z,100753.45
2024-04-23T08:16:47.186Z,100752.48
2024-04-23T08:17:49.734Z,100746.91
2024-04-23T08:18:54.121Z,100743.14
2024-04-23T08:19:56.774Z,100740.33
2024-04-23T08:21:01.910Z,100743.73
2024-04-23T08:22:04.777Z,100736.22
2024-04-23T08:23:09.135Z,100740.48
2024-04-23T08:24:11.821Z,100739.99
2024-04-23T08:25:16.637Z,100743.25
2024-04-23T08:26:19.416Z,100743.73
2024-04-23T08:27:21.890Z,100735.13
2024-04-23T08:28:24.452Z,100733.66
2024-04-23T08:29:28.185Z,100729.64
2024-04-23T08:30:30.741Z,100735.23
2024-04-23T08:31:34.682Z,100732.41
2024-04-23T08:32:37.252Z,100732.99
2024-04-23T08:33:42.967Z,100730.05
2024-04-23T08:34:45.487Z,100720.77
2024-04-23T08:35:48.905Z,100722.84
2024-04-23T08:36:52.386Z,100715.91
2024-04-23T08:37:55.056Z,100726.02
2024-04-23T08:38:58.919Z,100727.98
2024-04-23T08:40:01.921Z,100718.95
2024-04-23T08:41:06.513Z,100726.13
2024-04-23T08:42:12.493Z,100722.38
2024-04-23T08:43:22.546Z,100715.98
2024-04-23T08:44:27.026Z,100718.36
2024-04-23T08:45:33.499Z,100714.77
2024-04-23T08:46:36.279Z,100716.42
2024-04-23T08:47:39.833Z,100719.14
2024-04-23T08:48:43.970Z,100713.45
2024-04-23T08:49:48.088Z,100724.41
2024-04-23T08:50:52.846Z,100716.16
2024-04-23T08:51:59.539Z,100718.20
2024-04-23T08:53:04.143Z,100713.75
2024-04-23T08:54:06.853Z,100707.89
2024-04-23T08:55:09.738Z,100712.24
2024-04-23T08:56:19.902Z,100707.89
2024-04-23T08:57:22.648Z,100715.31
2024-04-23T08:58:27.827Z,100714.72
2024-04-23T08:59:32.375Z,100715.13
2024-04-23T09:00:48.748Z,100720.34
2024-04-23T09:01:53.536Z,100719.38
2024-04-23T09:02:58.203Z,100713.48
2024-04-23T09:04:03.153Z,100708.17
2024-04-23T09:05:06.142Z,100708.06
2024-04-23T09:06:09.267Z,100711.72
2024-04-23T09:07:24.400Z,100701.40
2024-04-23T09:08:19.772Z,100701.30
2024-04-23T09:09:41.346Z,100709.32
2024-04-23T09:10:46.029Z,100704.82
2024-04-23T09:11:52.745Z,100710.91
2024-04-23T09:12:57.496Z,100714.77
2024-04-23T09:14:21.961Z,100715.27
2024-04-23T09:15:30.993Z,100716.53
2024-04-23T09:16:41.237Z,100716.19
2024-04-23T09:17:46.414Z,100723.05
2024-04-23T09:18:49.368Z,100720.41
2024-04-23T09:19:54.705Z,100722.38
2024-04-23T09:20:58.249Z,100726.52
2024-04-23T09:22:09.993Z,100717.88
2024-04-23T09:23:14.699Z,100722.98
2024-04-23T09:24:26.874Z,100718.48
2024-04-23T09:25:37.040Z,100722.88
2024-04-23T09:26:40.393Z,100727.38
2024-04-23T09:27:42.993Z,100725.55
2024-04-23T09:29:06.336Z,100722.88
2024-04-23T09:30:10.123Z,100729.19
2024-04-23T09:31:13.549Z,100729.66
2024-04-23T09:32:17.411Z,100726.73
2024-04-23T09:33:24.560Z,100725.52
2024-04-23T09:34:33.420Z,100720.66
2024-04-23T09:35:33.221Z,100722.30
2024-04-23T09:36:35.831Z,100719.72
2024-04-23T09:37:38.155Z,100721.28
2024-04-23T09:38:41.460Z,100718.00
2024-04-23T09:39:46.005Z,100714.36
2024-04-23T09:40:48.231Z,100714.11
2024-04-23T09:41:57.297Z,100714.31
2024-04-23T09:42:59.987Z,100707.78
2024-04-23T09:44:02.345Z,100709.40
2024-04-23T09:45:06.222Z,100713.38
2024-04-23T09:46:11.170Z,100707.65
2024-04-23T09:47:13.701Z,100716.47
2024-04-23T09:48:16.391Z,100718.48
2024-04-23T09:49:19.448Z,100712.45
2024-04-23T09:50:29.566Z,100717.98
2024-04-23T09:51:33.770Z,100716.81
2024-04-23T09:52:36.149Z,100723.05
2024-04-23T09:53:43.071Z,100718.28
2024-04-23T09:54:45.692Z,100724.23
2024-04-23T09:55:55.883Z,100714.80
2024-04-23T09:57:02.556Z,100723.29
2024-04-23T09:58:04.985Z,100722.16
2024-04-23T09:59:13.157Z,100718.50
2024-04-23T10:00:16.106Z,100720.61
2024-04-23T10:01:21.375Z,100720.44
2024-04-23T10:02:28.780Z,100720.59
2024-04-23T10:03:34.396Z,100721.98
2024-04-23T10:04:38.534Z,100725.80
2024-04-23T10:05:43.041Z,100728.16
2024-04-23T10:06:47.830Z,100719.94
2024-04-23T10:08:13.789Z,100722.59
2024-04-23T10:09:18.650Z,100726.19
2024-04-23T10:10:24.329Z,100716.92
2024-04-23T10:11:28.755Z,100722.36
2024-04-23T10:12:32.063Z,100729.09
2024-04-23T10:13:37.302Z,100724.11
2024-04-23T10:14:52.258Z,100734.38
2024-04-23T10:15:56.860Z,100725.63
2024-04-23T10:17:18.048Z,100723.20
2024-04-23T10:18:26.544Z,100733.32
2024-04-23T10:19:30.083Z,100733.61
2024-04-23T10:20:36.377Z,100724.05
2024-04-23T10:21:42.110Z,100732.29
2024-04-23T10:22:45.243Z,100727.12
2024-04-23T10:23:47.975Z,100736.13
2024-04-23T10:24:51.105Z,100732.73
2024-04-23T10:25:55.299Z,100733.34
2024-04-23T10:26:57.748Z,100727.45
2024-04-23T10:28:00.165Z,100728.87
2024-04-23T10:29:02.480Z,100733.01
2024-04-23T10:30:06.235Z,100727.38
2024-04-23T10:31:10.325Z,100727.38
2024-04-23T10:32:13.980Z,100732.34
2024-04-23T10:33:17.849Z,100725.86
2024-04-23T10:34:21.496Z,100726.03
2024-04-23T10:35:24.322Z,100726.52
2024-04-23T10:36:27.825Z,100730.64
2024-04-23T10:37:35.220Z,100731.49
2024-04-23T10:38:37.720Z,100734.88
2024-04-23T10:39:40.984Z,100730.05
2024-04-23T10:40:52.542Z,100731.40
2024-04-23T10:41:56.554Z,100737.17
2024-04-23T10:42:59.025Z,100732.52
2024-04-23T10:44:02.570Z,100736.05
2024-04-23T10:45:06.892Z,100735.46
2024-04-23T10:46:12.005Z,100736.58
2024-04-23T10:47:16.324Z,100734.61
2024-04-23T10:48:26.785Z,100738.30
2024-04-23T10:49:29.354Z,100731.22
2024-04-23T10:50:32.046Z,100735.02
2024-04-23T10:51:34.868Z,100737.81
2024-04-23T10:52:37.195Z,100734.31
2024-04-23T10:53:39.564Z,100734.31
2024-04-23T10:54:41.891Z,100735.42
2024-04-23T10:55:49.447Z,100733.27
2024-04-23T10:57:02.601Z,100736.47
2024-04-23T10:58:07.779Z,100726.00
2024-04-23T10:59:14.199Z,100721.61
2024-04-23T11:00:16.900Z,100726.34
2024-04-23T11:01:24.317Z,100724.55
2024-04-23T11:02:26.921Z,100729.13
2024-04-23T11:03:30.823Z,100728.72
2024-04-23T11:04:47.106Z,100728.60
2024-04-23T11:05:50.064Z,100730.76
2024-04-23T11:06:56.579Z,100725.56
2024-04-23T11:08:06.362Z,100722.09
2024-04-23T11:09:18.789Z,100723.55
2024-04-23T11:10:21.179Z,100723.75
2024-04-23T11:11:23.867Z,100715.74
2024-04-23T11:12:27.466Z,100720.80
2024-04-23T11:13:37.418Z,100728.86
2024-04-23T11:14:39.665Z,100722.09
2024-04-23T11:15:42.140Z,100725.05
2024-04-23T11:16:44.774Z,100732.79
2024-04-23T11:17:47.244Z,100718.23
2024-04-23T11:18:51.618Z,100721.07
2024-04-23T11:19:54.618Z,100726.98
2024-04-23T11:20:58.872Z,100718.34
2024-04-23T11:22:02.060Z,100724.41
2024-04-23T11:23:06.236Z,100722.96
2024-04-23T11:24:11.217Z,100716.45
2024-04-23T11:25:17.379Z,100717.14
2024-04-23T11:26:23.152Z,100718.64
2024-04-23T11:27:25.635Z,100722.44
2024-04-23T11:28:28.009Z,100715.25
2024-04-23T11:29:30.452Z,100713.98
2024-04-23T11:30:33.121Z,100720.09
2024-04-23T11:31:35.711Z,100714.72
2024-04-23T11:32:38.483Z,100716.55
2024-04-23T11:33:42.264Z,100713.98
2024-04-23T11:34:46.321Z,100721.59
2024-04-23T11:35:52.963Z,100712.74
2024-04-23T11:36:55.204Z,100724.23
2024-04-23T11:37:58.039Z,100714.95
2024-04-23T11:39:00.524Z,100716.41
2024-04-23T11:40:03.524Z,100712.48
2024-04-23T11:41:07.105Z,100705.70
2024-04-23T11:42:12.369Z,100705.28
2024-04-23T11:43:18.789Z,100713.61
2024-04-23T11:44:24.545Z,100706.80
2024-04-23T11:45:26.856Z,100711.31
2024-04-23T11:46:30.185Z,100706.21
2024-04-23T11:47:32.739Z,100707.19
2024-04-23T11:48:35.671Z,100703.09
2024-04-23T11:49:38.613Z,100704.34
2024-04-23T11:50:42.184Z,100696.27
2024-04-23T11:51:44.704Z,100699.08
2024-04-23T11:52:48.028Z,100703.74
2024-04-23T11:53:50.508Z,100696.11
2024-04-23T11:54:54.067Z,100705.28
2024-04-23T11:55:57.911Z,100696.23
2024-04-23T11:57:00.448Z,100697.50
2024-04-23T11:58:02.826Z,100697.50
2024-04-23T11:59:05.228Z,100694.82
2024-04-23T12:00:08.627Z,100697.62
2024-04-23T12:01:11.029Z,100694.55
2024-04-23T12:02:16.511Z,100686.50
2024-04-23T12:03:19.354Z,100691.59
2024-04-23T12:04:22.275Z,100693.16
2024-04-23T12:05:26.161Z,100691.77
2024-04-23T12:06:29.220Z,100686.83
2024-04-23T12:07:31.876Z,100686.95
2024-04-23T12:08:34.556Z,100686.56